sensor_id;sensor_type;location;lat;lon;timestamp;temperature;humidity
47546;DHT22;50104;52.002;4.688;2023-07-31T00:03:18;18.50;87.20
47546;DHT22;50104;52.002;4.688;2023-07-31T00:08:18;18.50;87.50
47546;DHT22;50104;52.002;4.688;2023-07-31T00:13:19;18.50;87.40
47546;DHT22;50104;52.002;4.688;2023-07-31T00:18:20;18.60;87.10
47546;DHT22;50104;52.002;4.688;2023-07-31T00:23:21;18.60;87.20
47546;DHT22;50104;52.002;4.688;2023-07-31T00:28:22;18.60;87.20
47546;DHT22;50104;52.002;4.688;2023-07-31T00:33:22;18.60;87.20
47546;DHT22;50104;52.002;4.688;2023-07-31T00:38:23;18.60;87.40
47546;DHT22;50104;52.002;4.688;2023-07-31T00:43:24;18.50;87.20
47546;DHT22;50104;52.002;4.688;2023-07-31T00:48:25;18.60;87.20
47546;DHT22;50104;52.002;4.688;2023-07-31T00:53:27;18.50;87.30
47546;DHT22;50104;52.002;4.688;2023-07-31T00:58:28;18.50;87.30
47546;DHT22;50104;52.002;4.688;2023-07-31T01:03:29;18.50;87.50
47546;DHT22;50104;52.002;4.688;2023-07-31T01:14:15;18.50;87.50
47546;DHT22;50104;52.002;4.688;2023-07-31T01:19:18;18.50;87.60
47546;DHT22;50104;52.002;4.688;2023-07-31T01:24:48;18.40;88.10
47546;DHT22;50104;52.002;4.688;2023-07-31T01:30:05;18.40;87.70
47546;DHT22;50104;52.002;4.688;2023-07-31T01:35:11;18.30;88.00
47546;DHT22;50104;52.002;4.688;2023-07-31T01:40:12;18.30;87.90
47546;DHT22;50104;52.002;4.688;2023-07-31T01:45:12;18.30;87.50
47546;DHT22;50104;52.002;4.688;2023-07-31T01:50:13;18.30;87.60
47546;DHT22;50104;52.002;4.688;2023-07-31T01:55:14;18.20;88.10
47546;DHT22;50104;52.002;4.688;2023-07-31T02:00:15;18.20;88.10
47546;DHT22;50104;52.002;4.688;2023-07-31T02:05:16;18.20;88.20
47546;DHT22;50104;52.002;4.688;2023-07-31T02:10:17;18.20;88.10
47546;DHT22;50104;52.002;4.688;2023-07-31T02:15:17;18.20;87.90
47546;DHT22;50104;52.002;4.688;2023-07-31T02:20:19;18.20;87.90
47546;DHT22;50104;52.002;4.688;2023-07-31T02:25:19;18.20;87.90
47546;DHT22;50104;52.002;4.688;2023-07-31T02:30:20;18.20;87.70
47546;DHT22;50104;52.002;4.688;2023-07-31T02:35:21;18.20;87.70
47546;DHT22;50104;52.002;4.688;2023-07-31T02:40:22;18.20;87.70
47546;DHT22;50104;52.002;4.688;2023-07-31T02:45:23;18.20;87.70
47546;DHT22;50104;52.002;4.688;2023-07-31T02:50:24;18.20;87.50
47546;DHT22;50104;52.002;4.688;2023-07-31T02:55:25;18.20;87.20
47546;DHT22;50104;52.002;4.688;2023-07-31T03:00:26;18.20;86.90
47546;DHT22;50104;52.002;4.688;2023-07-31T03:05:26;18.20;86.80
47546;DHT22;50104;52.002;4.688;2023-07-31T03:10:27;18.20;86.60
47546;DHT22;50104;52.002;4.688;2023-07-31T03:15:28;18.20;86.70
47546;DHT22;50104;52.002;4.688;2023-07-31T03:20:29;18.20;86.60
47546;DHT22;50104;52.002;4.688;2023-07-31T03:25:29;18.20;86.60
47546;DHT22;50104;52.002;4.688;2023-07-31T03:30:30;18.20;86.60
47546;DHT22;50104;52.002;4.688;2023-07-31T03:35:31;18.20;86.60
47546;DHT22;50104;52.002;4.688;2023-07-31T03:40:32;18.20;86.40
47546;DHT22;50104;52.002;4.688;2023-07-31T03:45:32;18.20;86.50
47546;DHT22;50104;52.002;4.688;2023-07-31T03:50:33;18.30;86.20
47546;DHT22;50104;52.002;4.688;2023-07-31T03:55:34;18.30;86.20
47546;DHT22;50104;52.002;4.688;2023-07-31T04:00:35;18.30;86.10
47546;DHT22;50104;52.002;4.688;2023-07-31T04:05:38;18.30;86.40
47546;DHT22;50104;52.002;4.688;2023-07-31T04:10:40;18.20;86.50
47546;DHT22;50104;52.002;4.688;2023-07-31T04:15:41;18.20;86.50
47546;DHT22;50104;52.002;4.688;2023-07-31T04:20:42;18.20;86.70
47546;DHT22;50104;52.002;4.688;2023-07-31T04:25:43;18.10;86.60
47546;DHT22;50104;52.002;4.688;2023-07-31T04:30:43;18.10;86.80
47546;DHT22;50104;52.002;4.688;2023-07-31T04:35:53;18.10;87.10
47546;DHT22;50104;52.002;4.688;2023-07-31T04:40:54;18.10;86.90
47546;DHT22;50104;52.002;4.688;2023-07-31T04:45:55;18.10;87.10
47546;DHT22;50104;52.002;4.688;2023-07-31T04:50:56;18.00;87.30
47546;DHT22;50104;52.002;4.688;2023-07-31T04:55:57;18.00;87.50
47546;DHT22;50104;52.002;4.688;2023-07-31T05:00:57;18.00;87.70
47546;DHT22;50104;52.002;4.688;2023-07-31T05:05:58;17.90;87.80
47546;DHT22;50104;52.002;4.688;2023-07-31T05:10:59;17.90;88.00
47546;DHT22;50104;52.002;4.688;2023-07-31T05:16:00;17.90;88.00
47546;DHT22;50104;52.002;4.688;2023-07-31T05:21:00;17.90;88.00
47546;DHT22;50104;52.002;4.688;2023-07-31T05:26:05;17.80;88.50
47546;DHT22;50104;52.002;4.688;2023-07-31T05:31:06;17.80;88.10
47546;DHT22;50104;52.002;4.688;2023-07-31T05:36:07;17.80;88.40
47546;DHT22;50104;52.002;4.688;2023-07-31T05:41:08;17.80;88.40
47546;DHT22;50104;52.002;4.688;2023-07-31T05:46:09;17.80;88.50
47546;DHT22;50104;52.002;4.688;2023-07-31T05:51:12;17.80;88.60
47546;DHT22;50104;52.002;4.688;2023-07-31T05:56:13;17.80;88.70
47546;DHT22;50104;52.002;4.688;2023-07-31T06:01:14;17.80;89.00
47546;DHT22;50104;52.002;4.688;2023-07-31T06:06:16;17.80;89.20
47546;DHT22;50104;52.002;4.688;2023-07-31T06:11:16;17.80;89.40
47546;DHT22;50104;52.002;4.688;2023-07-31T06:16:17;17.90;89.60
47546;DHT22;50104;52.002;4.688;2023-07-31T06:21:18;17.90;89.60
47546;DHT22;50104;52.002;4.688;2023-07-31T06:26:20;17.90;89.60
47546;DHT22;50104;52.002;4.688;2023-07-31T06:31:21;17.90;89.60
47546;DHT22;50104;52.002;4.688;2023-07-31T06:36:23;18.00;90.00
47546;DHT22;50104;52.002;4.688;2023-07-31T06:41:24;18.00;90.40
47546;DHT22;50104;52.002;4.688;2023-07-31T06:46:25;18.00;90.20
47546;DHT22;50104;52.002;4.688;2023-07-31T06:51:26;18.10;90.20
47546;DHT22;50104;52.002;4.688;2023-07-31T06:56:27;18.10;90.10
47546;DHT22;50104;52.002;4.688;2023-07-31T07:01:28;18.20;89.80
47546;DHT22;50104;52.002;4.688;2023-07-31T07:06:29;18.20;90.10
47546;DHT22;50104;52.002;4.688;2023-07-31T07:11:30;18.20;89.90
47546;DHT22;50104;52.002;4.688;2023-07-31T07:16:30;18.20;89.90
47546;DHT22;50104;52.002;4.688;2023-07-31T07:21:31;18.20;90.30
47546;DHT22;50104;52.002;4.688;2023-07-31T07:26:32;18.30;90.40
47546;DHT22;50104;52.002;4.688;2023-07-31T07:31:33;18.30;90.30
47546;DHT22;50104;52.002;4.688;2023-07-31T07:36:34;18.30;90.30
47546;DHT22;50104;52.002;4.688;2023-07-31T07:41:34;18.40;90.30
47546;DHT22;50104;52.002;4.688;2023-07-31T07:46:35;18.40;90.50
47546;DHT22;50104;52.002;4.688;2023-07-31T07:51:36;18.50;90.30
47546;DHT22;50104;52.002;4.688;2023-07-31T07:56:37;18.50;90.60
47546;DHT22;50104;52.002;4.688;2023-07-31T08:01:38;18.50;90.20
47546;DHT22;50104;52.002;4.688;2023-07-31T08:06:39;18.60;90.60
47546;DHT22;50104;52.002;4.688;2023-07-31T08:11:40;18.60;90.60
47546;DHT22;50104;52.002;4.688;2023-07-31T08:16:41;18.60;90.20
47546;DHT22;50104;52.002;4.688;2023-07-31T08:21:41;18.70;90.40
47546;DHT22;50104;52.002;4.688;2023-07-31T08:26:42;18.70;90.30
47546;DHT22;50104;52.002;4.688;2023-07-31T08:31:43;18.70;90.20
47546;DHT22;50104;52.002;4.688;2023-07-31T08:36:44;18.80;90.00
47546;DHT22;50104;52.002;4.688;2023-07-31T08:41:44;18.80;90.20
47546;DHT22;50104;52.002;4.688;2023-07-31T08:46:46;18.80;90.20
47546;DHT22;50104;52.002;4.688;2023-07-31T08:51:50;18.80;90.30
47546;DHT22;50104;52.002;4.688;2023-07-31T08:56:52;18.90;90.40
47546;DHT22;50104;52.002;4.688;2023-07-31T09:01:55;18.90;90.70
47546;DHT22;50104;52.002;4.688;2023-07-31T09:07:01;19.00;89.80
47546;DHT22;50104;52.002;4.688;2023-07-31T09:12:05;19.00;90.20
47546;DHT22;50104;52.002;4.688;2023-07-31T09:17:06;19.10;90.40
47546;DHT22;50104;52.002;4.688;2023-07-31T09:22:07;19.10;90.10
47546;DHT22;50104;52.002;4.688;2023-07-31T09:27:08;19.10;90.20
47546;DHT22;50104;52.002;4.688;2023-07-31T09:32:16;19.20;90.10
47546;DHT22;50104;52.002;4.688;2023-07-31T09:37:17;19.20;90.70
47546;DHT22;50104;52.002;4.688;2023-07-31T09:42:26;19.20;90.90
47546;DHT22;50104;52.002;4.688;2023-07-31T09:47:27;19.30;90.60
47546;DHT22;50104;52.002;4.688;2023-07-31T09:52:28;19.30;90.40
47546;DHT22;50104;52.002;4.688;2023-07-31T09:57:29;19.40;90.50
47546;DHT22;50104;52.002;4.688;2023-07-31T10:02:30;19.40;89.90
47546;DHT22;50104;52.002;4.688;2023-07-31T10:07:39;19.40;90.00
47546;DHT22;50104;52.002;4.688;2023-07-31T10:12:41;19.50;89.70
47546;DHT22;50104;52.002;4.688;2023-07-31T10:17:43;19.50;89.90
47546;DHT22;50104;52.002;4.688;2023-07-31T10:22:44;19.50;90.20
47546;DHT22;50104;52.002;4.688;2023-07-31T10:27:49;19.60;90.40
47546;DHT22;50104;52.002;4.688;2023-07-31T10:32:51;19.60;90.30
47546;DHT22;50104;52.002;4.688;2023-07-31T10:37:53;19.60;90.20
47546;DHT22;50104;52.002;4.688;2023-07-31T10:42:55;19.70;90.10
47546;DHT22;50104;52.002;4.688;2023-07-31T10:48:17;19.70;90.20
47546;DHT22;50104;52.002;4.688;2023-07-31T10:58:26;19.80;89.60
47546;DHT22;50104;52.002;4.688;2023-07-31T11:03:41;19.80;89.60
47546;DHT22;50104;52.002;4.688;2023-07-31T11:08:44;19.80;88.90
47546;DHT22;50104;52.002;4.688;2023-07-31T11:13:48;19.80;89.00
47546;DHT22;50104;52.002;4.688;2023-07-31T11:18:51;19.80;89.30
47546;DHT22;50104;52.002;4.688;2023-07-31T11:23:56;19.80;89.10
47546;DHT22;50104;52.002;4.688;2023-07-31T11:28:58;19.80;89.60
47546;DHT22;50104;52.002;4.688;2023-07-31T11:34:07;19.80;89.40
47546;DHT22;50104;52.002;4.688;2023-07-31T11:39:09;19.80;89.40
47546;DHT22;50104;52.002;4.688;2023-07-31T11:44:10;19.80;89.80
47546;DHT22;50104;52.002;4.688;2023-07-31T11:49:11;19.90;89.50
47546;DHT22;50104;52.002;4.688;2023-07-31T11:54:12;19.90;89.30
47546;DHT22;50104;52.002;4.688;2023-07-31T11:59:14;19.90;89.10
47546;DHT22;50104;52.002;4.688;2023-07-31T12:04:15;19.90;89.10
47546;DHT22;50104;52.002;4.688;2023-07-31T12:09:16;19.90;89.20
47546;DHT22;50104;52.002;4.688;2023-07-31T12:14:35;19.90;89.80
47546;DHT22;50104;52.002;4.688;2023-07-31T12:19:36;20.00;90.40
47546;DHT22;50104;52.002;4.688;2023-07-31T12:24:39;20.00;90.80
47546;DHT22;50104;52.002;4.688;2023-07-31T12:29:43;20.10;90.30
47546;DHT22;50104;52.002;4.688;2023-07-31T12:34:44;20.30;91.00
47546;DHT22;50104;52.002;4.688;2023-07-31T12:39:45;20.30;91.20
47546;DHT22;50104;52.002;4.688;2023-07-31T12:44:46;20.40;90.00
47546;DHT22;50104;52.002;4.688;2023-07-31T12:49:47;20.50;89.00
47546;DHT22;50104;52.002;4.688;2023-07-31T12:54:47;20.50;88.70
47546;DHT22;50104;52.002;4.688;2023-07-31T12:59:48;20.50;89.00
47546;DHT22;50104;52.002;4.688;2023-07-31T13:04:50;20.60;89.20
47546;DHT22;50104;52.002;4.688;2023-07-31T13:09:51;20.60;88.40
47546;DHT22;50104;52.002;4.688;2023-07-31T13:14:52;20.60;88.20
47546;DHT22;50104;52.002;4.688;2023-07-31T13:19:52;20.70;88.50
47546;DHT22;50104;52.002;4.688;2023-07-31T13:24:53;20.70;88.20
47546;DHT22;50104;52.002;4.688;2023-07-31T13:29:54;20.70;88.00
47546;DHT22;50104;52.002;4.688;2023-07-31T13:34:55;20.70;88.10
47546;DHT22;50104;52.002;4.688;2023-07-31T13:39:56;20.70;87.50
47546;DHT22;50104;52.002;4.688;2023-07-31T13:44:56;20.70;87.70
47546;DHT22;50104;52.002;4.688;2023-07-31T13:49:57;20.70;87.80
47546;DHT22;50104;52.002;4.688;2023-07-31T13:54:58;20.70;88.20
47546;DHT22;50104;52.002;4.688;2023-07-31T13:59:58;20.70;88.40
47546;DHT22;50104;52.002;4.688;2023-07-31T14:04:59;20.70;88.40
47546;DHT22;50104;52.002;4.688;2023-07-31T14:10:00;20.70;88.50
47546;DHT22;50104;52.002;4.688;2023-07-31T14:15:01;20.70;88.20
47546;DHT22;50104;52.002;4.688;2023-07-31T14:20:02;20.70;87.60
47546;DHT22;50104;52.002;4.688;2023-07-31T14:25:03;20.70;87.90
47546;DHT22;50104;52.002;4.688;2023-07-31T14:30:05;20.60;88.10
47546;DHT22;50104;52.002;4.688;2023-07-31T14:35:06;20.60;88.20
47546;DHT22;50104;52.002;4.688;2023-07-31T14:40:09;20.50;88.20
47546;DHT22;50104;52.002;4.688;2023-07-31T14:45:11;20.50;88.50
47546;DHT22;50104;52.002;4.688;2023-07-31T14:50:12;20.40;88.50
47546;DHT22;50104;52.002;4.688;2023-07-31T14:55:13;20.40;88.90
47546;DHT22;50104;52.002;4.688;2023-07-31T15:00:14;20.30;89.20
47546;DHT22;50104;52.002;4.688;2023-07-31T15:05:15;20.30;89.10
47546;DHT22;50104;52.002;4.688;2023-07-31T15:10:16;20.30;89.10
47546;DHT22;50104;52.002;4.688;2023-07-31T15:15:17;20.20;89.00
47546;DHT22;50104;52.002;4.688;2023-07-31T15:20:17;20.20;89.30
47546;DHT22;50104;52.002;4.688;2023-07-31T15:25:18;20.20;89.40
47546;DHT22;50104;52.002;4.688;2023-07-31T15:30:19;20.10;89.60
47546;DHT22;50104;52.002;4.688;2023-07-31T15:35:20;20.10;89.50
47546;DHT22;50104;52.002;4.688;2023-07-31T15:40:21;20.00;89.80
47546;DHT22;50104;52.002;4.688;2023-07-31T15:45:22;20.00;89.70
47546;DHT22;50104;52.002;4.688;2023-07-31T15:50:22;20.00;89.70
47546;DHT22;50104;52.002;4.688;2023-07-31T15:55:23;20.00;89.90
47546;DHT22;50104;52.002;4.688;2023-07-31T16:00:25;19.90;89.80
47546;DHT22;50104;52.002;4.688;2023-07-31T16:05:26;19.90;89.60
47546;DHT22;50104;52.002;4.688;2023-07-31T16:10:26;19.90;89.80
47546;DHT22;50104;52.002;4.688;2023-07-31T16:15:27;19.90;90.10
47546;DHT22;50104;52.002;4.688;2023-07-31T16:20:29;19.90;90.30
47546;DHT22;50104;52.002;4.688;2023-07-31T16:25:30;19.80;90.60
47546;DHT22;50104;52.002;4.688;2023-07-31T16:30:33;19.80;90.40
47546;DHT22;50104;52.002;4.688;2023-07-31T16:35:34;19.80;90.30
47546;DHT22;50104;52.002;4.688;2023-07-31T16:40:34;19.80;90.10
47546;DHT22;50104;52.002;4.688;2023-07-31T16:45:35;19.80;90.00
47546;DHT22;50104;52.002;4.688;2023-07-31T16:50:36;19.80;89.80
47546;DHT22;50104;52.002;4.688;2023-07-31T16:55:37;19.90;89.90
47546;DHT22;50104;52.002;4.688;2023-07-31T17:00:37;19.90;89.80
47546;DHT22;50104;52.002;4.688;2023-07-31T17:05:38;19.90;89.90
47546;DHT22;50104;52.002;4.688;2023-07-31T17:10:39;19.90;89.80
47546;DHT22;50104;52.002;4.688;2023-07-31T17:15:40;19.90;90.20
47546;DHT22;50104;52.002;4.688;2023-07-31T17:20:41;19.90;90.00
47546;DHT22;50104;52.002;4.688;2023-07-31T17:25:41;19.80;89.70
47546;DHT22;50104;52.002;4.688;2023-07-31T17:30:42;19.80;89.60
47546;DHT22;50104;52.002;4.688;2023-07-31T17:35:43;19.80;89.70
47546;DHT22;50104;52.002;4.688;2023-07-31T17:40:47;19.80;89.70
47546;DHT22;50104;52.002;4.688;2023-07-31T17:45:47;19.70;89.60
47546;DHT22;50104;52.002;4.688;2023-07-31T17:50:52;19.70;89.50
47546;DHT22;50104;52.002;4.688;2023-07-31T17:55:53;19.70;89.60
47546;DHT22;50104;52.002;4.688;2023-07-31T18:00:54;19.70;89.60
47546;DHT22;50104;52.002;4.688;2023-07-31T18:05:55;19.70;89.60
47546;DHT22;50104;52.002;4.688;2023-07-31T18:10:55;19.70;89.70
47546;DHT22;50104;52.002;4.688;2023-07-31T18:15:56;19.60;89.90
47546;DHT22;50104;52.002;4.688;2023-07-31T18:20:57;19.60;89.90
47546;DHT22;50104;52.002;4.688;2023-07-31T18:25:59;19.60;90.00
47546;DHT22;50104;52.002;4.688;2023-07-31T18:31:01;19.60;89.90
47546;DHT22;50104;52.002;4.688;2023-07-31T18:36:02;19.50;89.90
47546;DHT22;50104;52.002;4.688;2023-07-31T18:41:05;19.50;89.40
47546;DHT22;50104;52.002;4.688;2023-07-31T18:46:07;19.50;89.00
47546;DHT22;50104;52.002;4.688;2023-07-31T18:51:07;19.40;88.70
47546;DHT22;50104;52.002;4.688;2023-07-31T18:56:08;19.40;88.60
47546;DHT22;50104;52.002;4.688;2023-07-31T19:01:09;19.30;88.80
47546;DHT22;50104;52.002;4.688;2023-07-31T19:06:10;19.30;88.70
47546;DHT22;50104;52.002;4.688;2023-07-31T19:11:11;19.20;88.80
47546;DHT22;50104;52.002;4.688;2023-07-31T19:16:12;19.20;88.80
47546;DHT22;50104;52.002;4.688;2023-07-31T19:21:13;19.20;88.50
47546;DHT22;50104;52.002;4.688;2023-07-31T19:26:14;19.20;88.80
47546;DHT22;50104;52.002;4.688;2023-07-31T19:31:15;19.10;88.80
47546;DHT22;50104;52.002;4.688;2023-07-31T19:36:16;19.10;88.90
47546;DHT22;50104;52.002;4.688;2023-07-31T19:41:16;19.10;89.10
47546;DHT22;50104;52.002;4.688;2023-07-31T19:46:18;19.00;88.70
47546;DHT22;50104;52.002;4.688;2023-07-31T19:51:19;19.00;88.70
47546;DHT22;50104;52.002;4.688;2023-07-31T19:56:19;18.90;88.50
47546;DHT22;50104;52.002;4.688;2023-07-31T20:01:20;18.90;88.40
47546;DHT22;50104;52.002;4.688;2023-07-31T20:06:21;18.80;88.10
47546;DHT22;50104;52.002;4.688;2023-07-31T20:11:22;18.80;88.10
47546;DHT22;50104;52.002;4.688;2023-07-31T20:16:22;18.70;88.10
47546;DHT22;50104;52.002;4.688;2023-07-31T20:21:23;18.70;87.80
47546;DHT22;50104;52.002;4.688;2023-07-31T20:26:24;18.60;88.00
47546;DHT22;50104;52.002;4.688;2023-07-31T20:31:25;18.60;87.70
47546;DHT22;50104;52.002;4.688;2023-07-31T20:36:26;18.60;87.60
47546;DHT22;50104;52.002;4.688;2023-07-31T20:41:27;18.50;87.80
47546;DHT22;50104;52.002;4.688;2023-07-31T20:46:27;18.50;87.80
47546;DHT22;50104;52.002;4.688;2023-07-31T20:51:28;18.40;87.90
47546;DHT22;50104;52.002;4.688;2023-07-31T20:56:30;18.40;87.70
47546;DHT22;50104;52.002;4.688;2023-07-31T21:01:30;18.40;87.50
47546;DHT22;50104;52.002;4.688;2023-07-31T21:06:31;18.30;87.30
47546;DHT22;50104;52.002;4.688;2023-07-31T21:11:33;18.30;87.20
47546;DHT22;50104;52.002;4.688;2023-07-31T21:16:34;18.20;87.20
47546;DHT22;50104;52.002;4.688;2023-07-31T21:21:35;18.20;87.20
47546;DHT22;50104;52.002;4.688;2023-07-31T21:26:35;18.10;87.30
47546;DHT22;50104;52.002;4.688;2023-07-31T21:31:36;18.10;87.40
47546;DHT22;50104;52.002;4.688;2023-07-31T21:36:37;18.00;87.50
47546;DHT22;50104;52.002;4.688;2023-07-31T21:41:38;18.00;87.80
47546;DHT22;50104;52.002;4.688;2023-07-31T21:46:38;18.00;87.90
47546;DHT22;50104;52.002;4.688;2023-07-31T21:51:39;18.00;88.00
47546;DHT22;50104;52.002;4.688;2023-07-31T21:56:40;18.00;88.30
47546;DHT22;50104;52.002;4.688;2023-07-31T22:01:41;18.00;88.20
47546;DHT22;50104;52.002;4.688;2023-07-31T22:06:42;18.00;88.40
47546;DHT22;50104;52.002;4.688;2023-07-31T22:11:43;17.90;88.30
47546;DHT22;50104;52.002;4.688;2023-07-31T22:16:43;17.90;88.10
47546;DHT22;50104;52.002;4.688;2023-07-31T22:21:44;17.90;87.90
47546;DHT22;50104;52.002;4.688;2023-07-31T22:26:45;17.90;87.70
47546;DHT22;50104;52.002;4.688;2023-07-31T22:31:46;17.90;87.70
47546;DHT22;50104;52.002;4.688;2023-07-31T22:36:46;17.80;87.40
47546;DHT22;50104;52.002;4.688;2023-07-31T22:41:47;17.80;87.30
47546;DHT22;50104;52.002;4.688;2023-07-31T22:46:48;17.80;87.40
47546;DHT22;50104;52.002;4.688;2023-07-31T22:51:48;17.70;87.30
47546;DHT22;50104;52.002;4.688;2023-07-31T22:56:49;17.70;87.40
47546;DHT22;50104;52.002;4.688;2023-07-31T23:01:50;17.60;87.50
47546;DHT22;50104;52.002;4.688;2023-07-31T23:06:51;17.60;87.50
47546;DHT22;50104;52.002;4.688;2023-07-31T23:11:53;17.60;87.50
47546;DHT22;50104;52.002;4.688;2023-07-31T23:16:53;17.60;87.70
47546;DHT22;50104;52.002;4.688;2023-07-31T23:21:54;17.50;87.60
47546;DHT22;50104;52.002;4.688;2023-07-31T23:26:55;17.50;87.70
47546;DHT22;50104;52.002;4.688;2023-07-31T23:31:56;17.50;87.90
47546;DHT22;50104;52.002;4.688;2023-07-31T23:36:56;17.50;88.00
47546;DHT22;50104;52.002;4.688;2023-07-31T23:41:57;17.50;88.00
47546;DHT22;50104;52.002;4.688;2023-07-31T23:46:58;17.50;88.00
47546;DHT22;50104;52.002;4.688;2023-07-31T23:51:59;17.50;87.90
47546;DHT22;50104;52.002;4.688;2023-07-31T23:56:59;17.50;88.10
